Aviation Digital Data Service (ADDS)

Output produced by METARs form (1822 UTC 22 November 2017)
found at http://www.aviationweather.gov/adds/metars/
 
TAF HBBA 221500Z 2218/2324 00000KT CAVOK 
     BECMG2302/2304 36002KT 9999 FEW025 BKN100 
     BECMG2307/2309 18010G25KT 9999 FEW025 FEW030CB BKN100 
     PROB30 
     TEMPO2310/2324 06010G25KT 5000 TSRA ORSHRA SCT025CB BKN100